Time;durP1;ratioP1;P1;durP2;ratioP2;P2;SDS_P1;SDS_P2;PMS_P1;PMS_P2;Temp;Humidity;BMP_temperature;BMP_pressure;BME280_temperature;BME280_humidity;BME280_pressure;Samples;Min_cycle;Max_cycle;Signal;HPM_P1;HPM_P2
2023/08/03 00:00:46;;;;;;;1.48;0.93;;;20.10;73.30;;;;;;4970482;28;20134;-30
2023/08/03 00:03:12;;;;;;;1.55;0.90;;;20.40;84.80;;;;;;4970268;28;20146;-31
2023/08/03 00:05:39;;;;;;;0.98;0.80;;;;;;;;;;4968985;28;20078;-30
2023/08/03 00:08:08;;;;;;;2.15;1.20;;;21.10;86.00;;;;;;4966440;28;20126;-30
2023/08/03 00:10:35;;;;;;;3.28;1.00;;;21.00;84.10;;;;;;4970068;28;20138;-30
2023/08/03 00:13:01;;;;;;;2.53;0.90;;;20.30;85.60;;;;;;4969402;28;20054;-29
2023/08/03 00:15:28;;;;;;;1.65;0.90;;;20.40;74.40;;;;;;4970296;28;20130;-33
2023/08/03 00:17:55;;;;;;;3.63;1.00;;;20.40;84.90;;;;;;4969989;28;20130;-30
2023/08/03 00:20:22;;;;;;;1.35;0.80;;;;;;;;;;4970237;28;20129;-30
2023/08/03 00:22:49;;;;;;;3.45;1.00;;;;;;;;;;4966912;28;20126;-29
2023/08/03 00:25:17;;;;;;;1.00;0.90;;;20.60;85.60;;;;;;4950975;28;20133;-29
2023/08/03 00:27:44;;;;;;;1.85;0.93;;;20.10;85.40;;;;;;4950924;28;20135;-30
2023/08/03 00:30:11;;;;;;;1.23;0.75;;;20.70;76.70;;;;;;4950514;28;20536;-30
2023/08/03 00:32:38;;;;;;;1.52;0.90;;;20.60;85.00;;;;;;4950534;28;20126;-30
2023/08/03 00:35:06;;;;;;;2.63;0.80;;;20.50;69.00;;;;;;4950920;28;20130;-35
2023/08/03 00:37:32;;;;;;;1.02;0.80;;;20.40;84.70;;;;;;4963977;28;20256;-30
2023/08/03 00:39:59;;;;;;;2.72;0.90;;;20.70;81.70;;;;;;4968944;28;20462;-29
2023/08/03 00:42:27;;;;;;;1.83;0.70;;;20.20;85.30;;;;;;4969541;28;20141;-30
2023/08/03 00:44:54;;;;;;;1.00;0.90;;;19.50;84.40;;;;;;4969882;28;20125;-30
2023/08/03 00:47:20;;;;;;;1.13;0.80;;;20.60;84.90;;;;;;4970147;28;20078;-30
2023/08/03 00:49:47;;;;;;;1.33;0.82;;;;;;;;;;4969880;28;20079;-32
2023/08/03 00:52:14;;;;;;;1.23;0.80;;;20.60;85.20;;;;;;4969658;28;20130;-30
2023/08/03 00:54:43;;;;;;;1.77;0.90;;;;;;;;;;4958956;28;20135;-35
2023/08/03 00:57:10;;;;;;;0.60;0.57;;;;;;;;;;4951349;28;20062;-32
2023/08/03 00:59:38;;;;;;;0.90;0.70;;;20.40;68.90;;;;;;4950323;28;20130;-30
2023/08/03 01:02:05;;;;;;;1.98;0.80;;;20.50;85.20;;;;;;4950605;28;20150;-30
2023/08/03 01:04:32;;;;;;;1.85;0.90;;;20.20;73.70;;;;;;4950345;28;20412;-30
2023/08/03 01:06:58;;;;;;;2.67;0.80;;;20.70;85.70;;;;;;4956606;28;20122;-30
2023/08/03 01:09:25;;;;;;;1.15;0.70;;;19.40;84.00;;;;;;4969752;28;20153;-30
2023/08/03 01:11:52;;;;;;;0.93;0.75;;;20.50;71.60;;;;;;4966929;28;20134;-31
2023/08/03 01:14:18;;;;;;;2.38;0.82;;;20.50;84.90;;;;;;4950090;28;20105;-31
2023/08/03 01:16:47;;;;;;;1.35;0.70;;;20.40;84.90;;;;;;4950354;28;20138;-30
2023/08/03 01:19:14;;;;;;;1.10;0.70;;;;;;;;;;4950369;28;20142;-30
2023/08/03 01:21:41;;;;;;;0.70;0.70;;;20.50;84.80;;;;;;4950012;28;20062;-30
2023/08/03 01:24:10;;;;;;;1.02;0.73;;;20.40;68.90;;;;;;4952744;28;20461;-32
2023/08/03 01:26:37;;;;;;;1.60;0.90;;;;;;;;;;4955171;28;20082;-30
2023/08/03 01:29:04;;;;;;;1.10;0.77;;;20.50;85.30;;;;;;4971949;28;20126;-31
2023/08/03 01:31:30;;;;;;;0.80;0.80;;;19.30;77.10;;;;;;4972807;28;20133;-30
2023/08/03 01:33:57;;;;;;;1.17;0.80;;;20.30;84.80;;;;;;4972252;28;20133;-29
2023/08/03 01:36:24;;;;;;;1.35;0.80;;;;;;;;;;4968581;28;20047;-30
2023/08/03 01:38:54;;;;;;;1.48;0.90;;;20.10;84.70;;;;;;4952994;28;20135;-30
2023/08/03 01:41:22;;;;;;;1.20;0.80;;;20.00;78.30;;;;;;4952913;28;20056;-30
2023/08/03 01:43:52;;;;;;;2.70;1.00;;;20.40;80.40;;;;;;4953133;28;20139;-30
2023/08/03 01:46:19;;;;;;;0.77;0.60;;;20.80;77.70;;;;;;4953611;28;20130;-30
2023/08/03 01:48:46;;;;;;;2.25;1.10;;;;;;;;;;4953117;28;20135;-30
2023/08/03 01:51:13;;;;;;;1.13;0.82;;;;;;;;;;4965622;28;20134;-34
2023/08/03 01:53:40;;;;;;;0.60;0.60;;;20.00;84.60;;;;;;4961734;28;20134;-31
2023/08/03 01:56:07;;;;;;;0.60;0.60;;;21.20;85.20;;;;;;4953220;28;20055;-31
2023/08/03 01:58:35;;;;;;;1.98;0.80;;;20.70;73.60;;;;;;4953029;28;20130;-31
2023/08/03 02:01:02;;;;;;;1.00;0.70;;;20.50;71.90;;;;;;4953069;28;20138;-32
2023/08/03 02:03:29;;;;;;;1.83;0.82;;;19.30;84.40;;;;;;4952611;28;20066;-30
2023/08/03 02:05:55;;;;;;;0.95;0.63;;;20.90;72.80;;;;;;4952720;28;20134;-32
2023/08/03 02:08:22;;;;;;;1.60;0.90;;;20.50;85.30;;;;;;4956101;28;20130;-30
2023/08/03 02:10:49;;;;;;;0.95;0.73;;;20.10;85.20;;;;;;4952918;28;20090;-30
2023/08/03 02:13:16;;;;;;;0.60;0.60;;;;;;;;;;4952523;28;20485;-32
2023/08/03 02:15:44;;;;;;;1.40;0.82;;;20.10;84.90;;;;;;4952825;28;20479;-31
2023/08/03 02:18:11;;;;;;;0.95;0.70;;;19.80;77.20;;;;;;4952571;28;20135;-30
2023/08/03 02:20:37;;;;;;;1.20;0.70;;;20.30;85.40;;;;;;4952678;28;20120;-30
2023/08/03 02:23:04;;;;;;;1.05;0.73;;;20.30;77.10;;;;;;4952296;28;20567;-30
2023/08/03 02:25:31;;;;;;;2.92;0.82;;;19.50;84.90;;;;;;4953697;28;20134;-30
2023/08/03 02:27:57;;;;;;;0.82;0.70;;;20.40;85.80;;;;;;4952734;28;20134;-29
2023/08/03 02:30:25;;;;;;;1.15;0.70;;;;;;;;;;4952622;28;20134;-32
2023/08/03 02:32:53;;;;;;;1.02;0.70;;;21.40;85.90;;;;;;4952332;28;20126;-30
2023/08/03 02:35:19;;;;;;;0.70;0.70;;;20.30;85.80;;;;;;4951319;28;20081;-30
2023/08/03 02:37:46;;;;;;;0.80;0.80;;;20.50;85.00;;;;;;4967409;28;20123;-29
2023/08/03 02:40:13;;;;;;;1.08;0.80;;;;;;;;;;4970685;28;20129;-30
2023/08/03 02:42:40;;;;;;;0.95;0.73;;;19.30;84.40;;;;;;4971594;28;20133;-30
2023/08/03 02:45:08;;;;;;;0.95;0.65;;;20.40;68.90;;;;;;4971520;28;20129;-34
2023/08/03 02:47:35;;;;;;;1.08;0.75;;;;;;;;;;4957712;28;20086;-35
2023/08/03 02:50:03;;;;;;;0.50;0.50;;;19.90;85.10;;;;;;4951939;28;20134;-30
2023/08/03 02:52:30;;;;;;;2.50;0.70;;;20.60;85.20;;;;;;4952180;28;20090;-29
2023/08/03 02:54:57;;;;;;;1.10;0.80;;;;;;;;;;4952257;28;20127;-31
2023/08/03 02:57:24;;;;;;;1.35;0.73;;;19.60;85.40;;;;;;4962455;28;20137;-30
2023/08/03 02:59:50;;;;;;;3.15;1.13;;;20.40;86.00;;;;;;4971235;28;20576;-30
2023/08/03 03:02:17;;;;;;;0.65;0.65;;;;;;;;;;4971356;28;20089;-35
2023/08/03 03:04:44;;;;;;;0.80;0.60;;;19.40;84.80;;;;;;4971100;28;20165;-30
2023/08/03 03:07:12;;;;;;;1.13;0.80;;;20.50;85.10;;;;;;4963422;28;20122;-30
2023/08/03 03:09:39;;;;;;;1.45;0.82;;;20.30;84.90;;;;;;4951823;28;20134;-30
2023/08/03 03:12:06;;;;;;;0.75;0.60;;;21.30;70.30;;;;;;4951773;28;20093;-33
2023/08/03 03:14:35;;;;;;;0.77;0.60;;;19.90;84.80;;;;;;4966225;28;20083;-31
2023/08/03 03:17:02;;;;;;;1.27;0.73;;;;;;;;;;4951610;28;20106;-34
2023/08/03 03:19:29;;;;;;;1.05;0.60;;;;;;;;;;4951601;28;20131;-29
2023/08/03 03:21:56;;;;;;;1.30;0.70;;;;;;;;;;4951902;28;20138;-30
2023/08/03 03:24:24;;;;;;;0.50;0.50;;;20.00;84.70;;;;;;4951735;28;20139;-30
2023/08/03 03:26:50;;;;;;;0.98;0.70;;;20.60;85.10;;;;;;4951758;28;20047;-31
2023/08/03 03:29:17;;;;;;;1.27;0.80;;;19.80;85.60;;;;;;4955981;28;20070;-30
2023/08/03 03:31:44;;;;;;;1.30;0.80;;;;;;;;;;4959292;28;20559;-32
2023/08/03 03:34:11;;;;;;;0.68;0.50;;;20.60;85.20;;;;;;4950032;29;20483;-30
2023/08/03 03:36:38;;;;;;;0.73;0.70;;;20.90;85.30;;;;;;4957273;28;20108;-30
2023/08/03 03:39:05;;;;;;;2.10;0.70;;;19.80;78.00;;;;;;4970617;28;20142;-30
2023/08/03 03:41:33;;;;;;;0.77;0.63;;;20.20;84.90;;;;;;4970770;28;20408;-30
2023/08/03 03:44:00;;;;;;;0.80;0.50;;;20.90;83.80;;;;;;4955254;28;20138;-29
2023/08/03 03:46:27;;;;;;;0.75;0.57;;;;;;;;;;4958459;28;20465;-30
2023/08/03 03:48:54;;;;;;;0.88;0.70;;;20.10;84.80;;;;;;4970570;28;20471;-30
2023/08/03 03:51:21;;;;;;;0.75;0.70;;;20.30;85.40;;;;;;4970645;28;20134;-31
2023/08/03 03:53:48;;;;;;;0.50;0.50;;;20.60;85.90;;;;;;4970468;28;20051;-29
2023/08/03 03:56:15;;;;;;;1.10;0.70;;;;;;;;;;4970458;28;20137;-34
2023/08/03 03:58:43;;;;;;;0.65;0.63;;;20.10;84.70;;;;;;4970316;28;20126;-30
2023/08/03 04:01:10;;;;;;;1.10;0.63;;;21.30;85.70;;;;;;4970592;28;20138;-29
2023/08/03 04:03:36;;;;;;;1.02;0.60;;;20.30;85.90;;;;;;4968619;28;20149;-30
2023/08/03 04:06:04;;;;;;;0.63;0.60;;;;;;;;;;4970557;28;20131;-31
2023/08/03 04:08:30;;;;;;;1.50;0.80;;;20.20;85.80;;;;;;4951770;28;20142;-29
2023/08/03 04:10:57;;;;;;;0.90;0.80;;;;;;;;;;4951169;28;20151;-33
2023/08/03 04:13:24;;;;;;;0.80;0.70;;;;;;;;;;4950700;28;20079;-30
2023/08/03 04:15:52;;;;;;;1.33;0.80;;;20.30;69.00;;;;;;4951005;28;20147;-33
2023/08/03 04:18:19;;;;;;;0.77;0.70;;;;;;;;;;4950957;28;20130;-34
2023/08/03 04:20:46;;;;;;;0.55;0.55;;;20.70;85.40;;;;;;4951450;28;20540;-30
2023/08/03 04:23:13;;;;;;;0.47;0.43;;;20.80;86.10;;;;;;4950528;28;20126;-29
2023/08/03 04:25:40;;;;;;;0.82;0.70;;;20.20;73.20;;;;;;4950895;28;20416;-33
2023/08/03 04:28:06;;;;;;;0.77;0.68;;;20.10;85.80;;;;;;4950822;28;20087;-31
2023/08/03 04:30:33;;;;;;;0.88;0.77;;;20.40;85.60;;;;;;4950907;28;20178;-30
2023/08/03 04:33:02;;;;;;;0.95;0.80;;;20.20;69.00;;;;;;4950897;28;20133;-31
2023/08/03 04:35:28;;;;;;;0.60;0.60;;;20.80;86.30;;;;;;4951910;28;20063;-30
2023/08/03 04:37:55;;;;;;;0.60;0.60;;;20.30;86.00;;;;;;4967156;28;20135;-29
2023/08/03 04:40:22;;;;;;;1.50;0.80;;;;;;;;;;4953708;28;20126;-33
2023/08/03 04:42:49;;;;;;;0.77;0.70;;;20.30;85.60;;;;;;4980840;28;20477;-30
2023/08/03 04:45:16;;;;;;;0.90;0.70;;;19.70;85.70;;;;;;5051564;28;20494;-30
2023/08/03 04:47:42;;;;;;;1.27;0.80;;;20.40;74.10;;;;;;5004382;28;20079;-31
2023/08/03 04:50:11;;;;;;;1.45;0.80;;;20.20;69.10;;;;;;4951279;28;20134;-30
2023/08/03 04:52:37;;;;;;;1.40;0.80;;;20.20;85.50;;;;;;4961050;28;20129;-30
2023/08/03 04:55:06;;;;;;;0.68;0.65;;;20.70;86.10;;;;;;4963492;28;20556;-29
2023/08/03 04:57:33;;;;;;;1.30;0.90;;;;;;;;;;4962529;28;20078;-32
2023/08/03 05:00:00;;;;;;;1.35;0.80;;;20.30;86.00;;;;;;4959193;28;20130;-30
2023/08/03 05:02:26;;;;;;;1.67;0.80;;;20.10;84.50;;;;;;4953836;28;20207;-31
2023/08/03 05:04:53;;;;;;;0.60;0.60;;;21.20;76.10;;;;;;4953774;28;20143;-30
2023/08/03 05:07:21;;;;;;;0.73;0.70;;;20.30;77.70;;;;;;4963092;28;20492;-30
2023/08/03 05:09:48;;;;;;;2.20;0.73;;;20.70;85.30;;;;;;4973032;28;20149;-30
2023/08/03 05:12:15;;;;;;;2.05;0.85;;;21.30;85.60;;;;;;4973090;28;20142;-29
2023/08/03 05:14:41;;;;;;;1.52;0.80;;;19.90;75.90;;;;;;4973148;28;20055;-30
2023/08/03 05:17:08;;;;;;;1.55;0.90;;;20.50;85.40;;;;;;4972298;28;20150;-30
2023/08/03 05:19:35;;;;;;;0.82;0.80;;;19.80;78.30;;;;;;4953982;28;20075;-30
2023/08/03 05:22:02;;;;;;;1.02;0.70;;;;;;;;;;4953722;28;20150;-33
2023/08/03 05:24:30;;;;;;;1.50;0.90;;;19.20;84.80;;;;;;4953405;28;20138;-30
2023/08/03 05:26:56;;;;;;;1.45;0.75;;;20.90;86.00;;;;;;4953399;28;20572;-30
2023/08/03 05:29:23;;;;;;;4.28;0.93;;;20.70;85.50;;;;;;4953577;28;20130;-29
2023/08/03 05:31:50;;;;;;;1.60;0.75;;;20.00;74.90;;;;;;4953543;28;20130;-30
2023/08/03 05:34:17;;;;;;;1.67;1.00;;;;;;;;;;4960610;28;20131;-30
2023/08/03 05:36:44;;;;;;;1.75;0.95;;;;;;;;;;4965766;28;20556;-32
2023/08/03 05:39:11;;;;;;;1.65;0.80;;;20.60;85.70;;;;;;4971901;28;20575;-30
2023/08/03 05:41:39;;;;;;;1.70;0.88;;;20.20;85.70;;;;;;4972732;28;20063;-31
2023/08/03 05:44:06;;;;;;;1.45;0.80;;;19.90;85.10;;;;;;4964389;28;20482;-29
2023/08/03 05:46:33;;;;;;;1.40;0.82;;;20.50;73.70;;;;;;4962886;28;20125;-31
2023/08/03 05:49:00;;;;;;;1.63;0.90;;;;;;;;;;4963412;28;20126;-30
2023/08/03 05:51:27;;;;;;;1.48;0.90;;;20.70;75.30;;;;;;4961922;28;20130;-30
2023/08/03 05:53:54;;;;;;;2.55;0.95;;;20.30;85.30;;;;;;4962215;28;20475;-30
2023/08/03 05:56:21;;;;;;;1.17;0.70;;;20.40;77.20;;;;;;4953143;29;20579;-31
2023/08/03 05:58:49;;;;;;;1.38;0.80;;;20.60;85.40;;;;;;4953058;29;20133;-30
2023/08/03 06:01:18;;;;;;;2.15;0.85;;;21.00;85.80;;;;;;4953411;29;20134;-30
2023/08/03 06:03:45;;;;;;;1.27;0.80;;;20.60;74.70;;;;;;4952549;29;20113;-31
2023/08/03 06:06:12;;;;;;;2.08;1.10;;;20.40;85.20;;;;;;4953265;28;20126;-31
2023/08/03 06:08:39;;;;;;;1.85;0.90;;;;;;;;;;4955807;28;20498;-33
2023/08/03 06:11:06;;;;;;;1.52;0.90;;;19.90;85.10;;;;;;4952510;28;20090;-30
2023/08/03 06:13:34;;;;;;;1.98;1.00;;;20.20;69.10;;;;;;4952506;28;20063;-30
2023/08/03 06:16:03;;;;;;;1.58;0.90;;;20.20;69.20;;;;;;4952879;29;20143;-31
2023/08/03 06:18:31;;;;;;;1.73;0.90;;;20.20;81.10;;;;;;4967747;28;20055;-34
2023/08/03 06:20:58;;;;;;;1.15;0.65;;;20.10;77.10;;;;;;4951426;28;20583;-33
2023/08/03 06:23:26;;;;;;;1.17;0.77;;;19.00;75.30;;;;;;4958111;28;20050;-33
2023/08/03 06:25:53;;;;;;;2.45;0.93;;;20.20;70.10;;;;;;4959009;28;20482;-32
2023/08/03 06:28:21;;;;;;;2.92;0.90;;;20.30;86.10;;;;;;4964850;28;20081;-32
2023/08/03 06:30:48;;;;;;;1.58;0.90;;;19.70;81.30;;;;;;4969096;28;20731;-31
2023/08/03 06:33:17;;;;;;;1.83;0.70;;;20.30;85.50;;;;;;4951780;28;20142;-32
2023/08/03 06:35:45;;;;;;;2.90;1.30;;;20.40;85.40;;;;;;4951980;28;20061;-32
2023/08/03 06:38:13;;;;;;;1.88;0.90;;;;;;;;;;4971136;28;20256;-32
2023/08/03 06:40:40;;;;;;;1.63;1.00;;;19.80;85.10;;;;;;4965470;28;20058;-30
2023/08/03 06:43:07;;;;;;;1.92;1.00;;;19.90;85.20;;;;;;4960562;28;20514;-30
2023/08/03 06:45:33;;;;;;;3.47;1.20;;;20.30;69.70;;;;;;4960045;28;20491;-30
2023/08/03 06:48:00;;;;;;;2.30;0.85;;;20.10;73.80;;;;;;4973216;28;20132;-31
2023/08/03 06:50:29;;;;;;;1.83;0.80;;;20.20;69.10;;;;;;4961778;28;20046;-31
2023/08/03 06:52:56;;;;;;;1.75;0.90;;;20.00;76.20;;;;;;4969023;28;20130;-31
2023/08/03 06:55:23;;;;;;;1.85;0.93;;;;;;;;;;4959593;28;20573;-31
2023/08/03 06:57:49;;;;;;;2.35;1.02;;;20.40;85.90;;;;;;4967749;28;20484;-31
2023/08/03 07:00:17;;;;;;;1.13;0.90;;;20.00;85.70;;;;;;4952899;28;20079;-31
2023/08/03 07:02:44;;;;;;;1.95;0.98;;;;;;;;;;4968255;28;20499;-31
2023/08/03 07:05:11;;;;;;;1.85;1.00;;;20.40;74.80;;;;;;4970411;28;20484;-31
2023/08/03 07:07:39;;;;;;;1.13;0.90;;;20.30;85.40;;;;;;4960594;28;20141;-30
2023/08/03 07:10:07;;;;;;;0.88;0.70;;;19.30;84.80;;;;;;4962057;28;20471;-31
2023/08/03 07:12:34;;;;;;;2.78;0.98;;;20.40;85.80;;;;;;4960339;28;20135;-32
2023/08/03 07:15:01;;;;;;;0.85;0.80;;;;;;;;;;4964511;28;20552;-33
2023/08/03 07:17:28;;;;;;;0.80;0.70;;;20.30;85.80;;;;;;4952190;28;20058;-31
2023/08/03 07:19:55;;;;;;;1.23;0.80;;;20.40;85.50;;;;;;4951623;28;20131;-30
2023/08/03 07:22:21;;;;;;;1.98;0.90;;;20.30;76.60;;;;;;4951374;28;20138;-31
2023/08/03 07:24:49;;;;;;;2.78;1.27;;;20.10;85.30;;;;;;4962745;28;20146;-30
2023/08/03 07:27:16;;;;;;;0.98;0.88;;;20.80;86.40;;;;;;4969991;28;20131;-31
2023/08/03 07:29:43;;;;;;;0.85;0.80;;;20.60;85.60;;;;;;4952280;28;20126;-30
2023/08/03 07:32:09;;;;;;;1.98;1.10;;;20.70;74.60;;;;;;4952146;28;20133;-32
2023/08/03 07:34:36;;;;;;;1.80;0.93;;;;;;;;;;4951289;28;20437;-32
2023/08/03 07:37:02;;;;;;;1.83;0.90;;;19.90;85.40;;;;;;4960689;28;20082;-31
2023/08/03 07:39:30;;;;;;;1.88;1.00;;;;;;;;;;4957795;28;20165;-31
2023/08/03 07:41:58;;;;;;;0.75;0.70;;;20.80;86.30;;;;;;4970959;28;20078;-33
2023/08/03 07:44:24;;;;;;;1.23;0.80;;;20.40;85.10;;;;;;4963695;28;20445;-31
2023/08/03 07:46:51;;;;;;;1.38;0.70;;;20.30;84.90;;;;;;4970711;28;20137;-31
2023/08/03 07:49:19;;;;;;;0.70;0.60;;;;;;;;;;4954451;28;20522;-33
2023/08/03 07:51:47;;;;;;;0.82;0.68;;;;;;;;;;4951393;28;20051;-32
2023/08/03 07:54:14;;;;;;;1.08;0.80;;;;;;;;;;4960387;28;20100;-34
2023/08/03 07:56:41;;;;;;;1.02;0.70;;;20.30;85.00;;;;;;4970794;28;20050;-36
2023/08/03 07:59:10;;;;;;;1.70;0.70;;;20.70;85.50;;;;;;4970686;28;20129;-38
2023/08/03 08:01:37;;;;;;;1.05;0.70;;;20.50;75.60;;;;;;4965007;28;20047;-36
2023/08/03 08:04:03;;;;;;;1.25;0.80;;;19.30;84.60;;;;;;4959784;28;20580;-35
2023/08/03 08:06:30;;;;;;;1.35;0.82;;;;;;;;;;4967584;28;20142;-32
2023/08/03 08:08:57;;;;;;;2.13;0.70;;;20.90;87.10;;;;;;4951446;28;20130;-38
2023/08/03 08:11:24;;;;;;;1.52;1.00;;;19.60;86.20;;;;;;4955908;28;20046;-37
2023/08/03 08:13:51;;;;;;;0.88;0.70;;;;;;;;;;4963644;28;20141;-34
2023/08/03 08:16:19;;;;;;;2.03;0.93;;;20.50;86.40;;;;;;4961318;28;20462;-38
2023/08/03 08:18:46;;;;;;;0.80;0.70;;;20.50;86.30;;;;;;4964375;28;20126;-35
2023/08/03 08:21:13;;;;;;;0.60;0.60;;;;;;;;;;4966066;28;20496;-34
2023/08/03 08:23:40;;;;;;;0.60;0.60;;;20.30;86.10;;;;;;4967704;28;20125;-37
2023/08/03 08:26:10;;;;;;;1.83;0.80;;;20.50;86.10;;;;;;4950882;28;20126;-35
2023/08/03 08:28:37;;;;;;;1.55;0.80;;;;;;;;;;4951000;28;20130;-34
2023/08/03 08:31:04;;;;;;;0.75;0.70;;;20.40;85.70;;;;;;4960174;28;20496;-37
2023/08/03 08:33:32;;;;;;;1.08;0.68;;;20.10;86.00;;;;;;4952764;28;20075;-35
2023/08/03 08:35:59;;;;;;;0.93;0.63;;;21.00;86.10;;;;;;4955107;28;20496;-38
2023/08/03 08:38:25;;;;;;;0.98;0.65;;;20.30;70.40;;;;;;4973407;28;20138;-33
2023/08/03 08:40:52;;;;;;;0.93;0.77;;;20.80;86.00;;;;;;4973707;28;20477;-39
2023/08/03 08:43:20;;;;;;;0.93;0.70;;;;;;;;;;4973463;28;20138;-37
2023/08/03 08:45:47;;;;;;;0.63;0.60;;;21.10;86.00;;;;;;4966531;28;20083;-34
2023/08/03 08:48:14;;;;;;;0.77;0.73;;;21.10;85.40;;;;;;4954070;28;20047;-37
2023/08/03 08:50:42;;;;;;;0.88;0.73;;;20.80;85.80;;;;;;4958679;28;20493;-39
2023/08/03 08:53:09;;;;;;;3.60;0.70;;;20.00;84.50;;;;;;4954089;28;20065;-38
2023/08/03 08:55:35;;;;;;;2.05;0.80;;;20.60;85.10;;;;;;4953799;28;20145;-39
2023/08/03 08:58:02;;;;;;;0.85;0.70;;;21.40;74.20;;;;;;4954121;28;20124;-35
2023/08/03 09:00:29;;;;;;;0.70;0.70;;;;;;;;;;4953857;28;20585;-37
2023/08/03 09:02:57;;;;;;;0.60;0.60;;;;;;;;;;4953735;28;20495;-34
2023/08/03 09:05:24;;;;;;;0.88;0.63;;;21.50;85.20;;;;;;4970873;28;20400;-36
2023/08/03 09:08:01;;;;;;;1.30;0.68;;;20.60;83.00;;;;;;4959692;28;20131;-36
2023/08/03 09:10:28;;;;;;;1.25;0.73;;;;;;;;;;4953961;28;20051;-38
2023/08/03 09:12:55;;;;;;;0.60;0.60;;;;;;;;;;4953536;29;20146;-38
2023/08/03 09:15:37;;;;;;;0.70;0.60;;;21.10;66.90;;;;;;4953813;28;20131;-34
2023/08/03 09:18:04;;;;;;;0.70;0.70;;;21.20;84.70;;;;;;4953880;28;20055;-38
2023/08/03 09:20:31;;;;;;;0.68;0.68;;;;;;;;;;4960941;28;20051;-36
2023/08/03 09:22:59;;;;;;;0.68;0.68;;;21.20;72.80;;;;;;4972775;28;20126;-36
2023/08/03 09:25:26;;;;;;;0.60;0.60;;;21.50;84.50;;;;;;4973043;28;20133;-39
2023/08/03 09:27:55;;;;;;;0.60;0.60;;;21.30;66.60;;;;;;4968946;28;20449;-32
2023/08/03 09:30:22;;;;;;;1.45;0.75;;;21.20;84.70;;;;;;4953305;28;20552;-40
2023/08/03 09:32:49;;;;;;;1.10;0.63;;;;;;;;;;4960372;28;20042;-37
2023/08/03 09:35:16;;;;;;;0.60;0.60;;;21.90;84.20;;;;;;4953494;28;20459;-36
2023/08/03 09:37:43;;;;;;;0.60;0.60;;;;;;;;;;4968102;28;20130;-35
2023/08/03 09:40:12;;;;;;;0.55;0.55;;;21.20;83.20;;;;;;4972450;28;20146;-38
2023/08/03 09:42:39;;;;;;;0.60;0.60;;;21.40;83.30;;;;;;4972494;28;20094;-38
2023/08/03 09:45:08;;;;;;;1.00;0.63;;;21.00;71.40;;;;;;4969993;28;20126;-36
2023/08/03 09:47:35;;;;;;;0.68;0.47;;;21.90;84.10;;;;;;4971162;28;20058;-36
2023/08/03 09:50:02;;;;;;;0.77;0.77;;;;;;;;;;4972262;28;20046;-34
2023/08/03 09:52:30;;;;;;;1.00;0.65;;;21.40;66.10;;;;;;4972281;28;20094;-38
2023/08/03 09:55:01;;;;;;;0.82;0.65;;;21.40;84.40;;;;;;4972258;28;20083;-37
2023/08/03 09:57:30;;;;;;;0.50;0.50;;;21.40;66.20;;;;;;4972578;28;20055;-34
2023/08/03 10:00:03;;;;;;;0.63;0.60;;;21.30;66.20;;;;;;4958607;28;20046;-33
2023/08/03 10:02:30;;;;;;;0.50;0.50;;;20.90;73.70;;;;;;4960481;28;20052;-35
2023/08/03 10:04:59;;;;;;;0.73;0.60;;;20.20;83.10;;;;;;4961800;28;20126;-39
2023/08/03 10:07:29;;;;;;;0.65;0.60;;;21.30;66.40;;;;;;4960203;28;20130;-36
2023/08/03 10:09:57;;;;;;;0.50;0.50;;;22.30;84.30;;;;;;4953060;29;20051;-36
2023/08/03 10:12:28;;;;;;;1.05;0.80;;;21.30;66.50;;;;;;4952850;29;20505;-36
2023/08/03 10:14:56;;;;;;;0.68;0.65;;;21.40;79.40;;;;;;4952887;29;20524;-36
2023/08/03 10:17:23;;;;;;;0.50;0.50;;;21.20;77.70;;;;;;4964962;28;20075;-35
2023/08/03 10:19:50;;;;;;;0.50;0.50;;;;;;;;;;4956774;28;20250;-36
2023/08/03 10:22:17;;;;;;;0.60;0.60;;;;;;;;;;4972398;28;20051;-36
2023/08/03 10:25:12;;;;;;;0.90;0.65;;;20.70;83.50;;;;;;4962539;28;20126;-36
2023/08/03 10:27:39;;;;;;;0.50;0.50;;;;;;;;;;4966493;28;20130;-35
2023/08/03 10:30:08;;;;;;;0.98;0.68;;;20.90;84.00;;;;;;4971959;28;20389;-37
2023/08/03 10:32:34;;;;;;;0.70;0.70;;;21.10;84.60;;;;;;4966932;28;20130;-37
2023/08/03 10:35:38;;;;;;;0.68;0.68;;;21.20;66.50;;;;;;4964641;28;20130;-34
2023/08/03 10:38:05;;;;;;;0.77;0.70;;;21.00;84.30;;;;;;4968416;28;20118;-39
2023/08/03 10:40:32;;;;;;;0.82;0.70;;;22.00;85.20;;;;;;4963293;28;20563;-38
2023/08/03 10:43:08;;;;;;;0.50;0.50;;;20.90;84.50;;;;;;4968378;28;20071;-39
2023/08/03 10:45:37;;;;;;;0.60;0.60;;;20.70;76.70;;;;;;4961925;28;20054;-36
2023/08/03 10:48:29;;;;;;;1.45;0.80;;;21.30;66.50;;;;;;4952494;28;20473;-34
2023/08/03 10:51:00;;;;;;;0.63;0.63;;;21.50;76.30;;;;;;4999748;28;20409;-38
2023/08/03 10:53:26;;;;;;;1.00;0.70;;;22.00;85.00;;;;;;4952153;28;20138;-36
2023/08/03 10:56:04;;;;;;;0.60;0.60;;;21.20;84.00;;;;;;4957347;28;20074;-38
2023/08/03 10:58:30;;;;;;;1.10;0.73;;;22.30;84.10;;;;;;4960342;28;20059;-38
2023/08/03 11:00:58;;;;;;;0.63;0.63;;;21.80;84.20;;;;;;4968585;28;20475;-37
2023/08/03 11:03:36;;;;;;;0.63;0.60;;;22.60;84.10;;;;;;4957275;28;20130;-36
2023/08/03 11:06:03;;;;;;;1.00;0.68;;;21.60;72.10;;;;;;4969996;28;20082;-36
2023/08/03 11:08:30;;;;;;;0.60;0.60;;;;;;;;;;4951606;28;20138;-35
2023/08/03 11:10:57;;;;;;;0.88;0.60;;;21.10;84.00;;;;;;4951848;28;20082;-37
2023/08/03 11:13:24;;;;;;;0.60;0.60;;;;;;;;;;4955320;28;20126;-38
2023/08/03 11:15:51;;;;;;;1.75;0.63;;;;;;;;;;4961335;28;20134;-36
2023/08/03 11:18:19;;;;;;;0.47;0.47;;;21.70;66.00;;;;;;4951608;29;20146;-34
2023/08/03 11:20:46;;;;;;;0.98;0.68;;;;;;;;;;4952057;29;20134;-36
2023/08/03 11:23:13;;;;;;;1.02;0.50;;;21.40;83.20;;;;;;4952063;29;20134;-36
2023/08/03 11:25:40;;;;;;;0.70;0.60;;;22.20;83.50;;;;;;4951908;29;20139;-36
2023/08/03 11:28:07;;;;;;;0.75;0.70;;;;;;;;;;4951792;29;20588;-37
2023/08/03 11:30:34;;;;;;;0.60;0.60;;;22.00;83.10;;;;;;4952010;29;20047;-35
2023/08/03 11:33:00;;;;;;;0.60;0.60;;;21.40;82.80;;;;;;4956727;28;20130;-36
2023/08/03 11:35:28;;;;;;;0.98;0.70;;;21.60;75.50;;;;;;4971262;28;20134;-36
2023/08/03 11:37:55;;;;;;;1.48;0.80;;;22.30;76.80;;;;;;4970607;28;20074;-36
2023/08/03 11:40:22;;;;;;;0.50;0.50;;;21.40;83.30;;;;;;4970715;28;20138;-36
2023/08/03 11:42:49;;;;;;;0.60;0.60;;;22.10;83.20;;;;;;4965879;28;20125;-35
2023/08/03 11:45:15;;;;;;;0.65;0.65;;;21.30;69.40;;;;;;4960891;28;20126;-39
2023/08/03 11:47:43;;;;;;;0.63;0.63;;;22.10;84.20;;;;;;4961548;28;20162;-39
2023/08/03 11:50:10;;;;;;;0.60;0.60;;;21.70;74.60;;;;;;4952624;28;20516;-37
2023/08/03 11:52:38;;;;;;;0.50;0.50;;;22.00;83.30;;;;;;4951196;28;20104;-36
2023/08/03 11:55:05;;;;;;;0.80;0.80;;;20.90;82.60;;;;;;4962378;28;20054;-40
2023/08/03 12:00:14;;;;;;;0.98;0.60;;;20.80;82.70;;;;;;4942968;28;20531;-36
2023/08/03 12:02:41;;;;;;;0.90;0.75;;;21.60;69.60;;;;;;4964054;28;20062;-36
2023/08/03 12:05:08;;;;;;;0.50;0.50;;;;;;;;;;4964548;28;20133;-34
2023/08/03 12:07:35;;;;;;;1.30;0.88;;;21.90;83.50;;;;;;4963192;28;20078;-30
2023/08/03 12:10:12;;;;;;;0.98;0.80;;;21.30;83.30;;;;;;4960519;28;20489;-31
2023/08/03 12:12:39;;;;;;;1.10;0.80;;;21.20;79.50;;;;;;4971677;28;20416;-31
2023/08/03 12:15:06;;;;;;;1.67;0.70;;;21.50;66.30;;;;;;4956861;28;20050;-32
2023/08/03 12:17:33;;;;;;;1.65;0.68;;;21.30;83.50;;;;;;4958321;28;20138;-31
2023/08/03 12:20:00;;;;;;;1.08;0.80;;;21.80;83.80;;;;;;4958921;28;20477;-31
2023/08/03 12:22:27;;;;;;;1.40;0.73;;;21.20;75.60;;;;;;4960705;28;20126;-31
2023/08/03 12:24:53;;;;;;;1.10;0.63;;;21.20;83.50;;;;;;4959391;28;20129;-31
2023/08/03 12:27:21;;;;;;;0.50;0.50;;;21.10;83.60;;;;;;4959549;28;20058;-31
2023/08/03 12:29:48;;;;;;;0.70;0.70;;;21.00;83.90;;;;;;4959834;28;20703;-30
2023/08/03 12:32:15;;;;;;;1.35;0.90;;;;;;;;;;4960910;28;20492;-33
2023/08/03 12:34:42;;;;;;;2.25;0.80;;;21.50;84.40;;;;;;4959299;28;20071;-31
2023/08/03 12:37:09;;;;;;;0.57;0.57;;;;;;;;;;4957488;28;20133;-34
2023/08/03 12:39:36;;;;;;;0.80;0.80;;;21.10;84.10;;;;;;4960873;28;20133;-31
2023/08/03 12:42:02;;;;;;;1.05;0.80;;;22.10;85.20;;;;;;4967715;28;20134;-29
2023/08/03 12:44:30;;;;;;;1.35;0.77;;;21.40;66.90;;;;;;4970067;28;20137;-32
2023/08/03 12:46:57;;;;;;;1.02;0.80;;;;;;;;;;4967390;28;20130;-36
2023/08/03 12:49:24;;;;;;;1.27;0.80;;;21.50;71.40;;;;;;4954788;28;20078;-31
2023/08/03 12:51:51;;;;;;;0.70;0.70;;;;;;;;;;4961381;28;20130;-33
2023/08/03 12:54:18;;;;;;;0.68;0.68;;;20.90;83.80;;;;;;4950377;28;20131;-31
2023/08/03 12:56:46;;;;;;;0.70;0.70;;;21.20;84.90;;;;;;4950793;28;20134;-31
2023/08/03 12:59:12;;;;;;;0.50;0.50;;;20.90;84.00;;;;;;4950589;28;20571;-31
2023/08/03 13:01:41;;;;;;;1.45;0.90;;;21.30;67.00;;;;;;4963898;28;20134;-35
2023/08/03 13:04:08;;;;;;;0.60;0.60;;;;;;;;;;4956044;28;20492;-34
2023/08/03 13:06:34;;;;;;;1.40;0.70;;;21.20;83.90;;;;;;4962843;28;20130;-31
2023/08/03 13:09:01;;;;;;;0.88;0.75;;;21.10;83.80;;;;;;4950477;28;20138;-32
2023/08/03 13:11:28;;;;;;;1.52;0.90;;;;;;;;;;4950672;28;20146;-35
2023/08/03 13:13:55;;;;;;;0.90;0.80;;;22.50;84.60;;;;;;4950348;28;20130;-30